National Weather Service United States Department of Commerce

Winter Travel Impacts from the Southern to the Northeast U.S.; Increasingly unsettled in the West

A winter Storm will continue to impact the Southern Plains to the Southeast, and to the Northeast into tonight. Snow packed and icy roads are creating hazardous travel conditions, and unusually cold temperatures and gusty winds are bringing chilly conditions into the farthest southern locations. Out west, a series of weather systems will bring heavy rain, mountain snows, and gusty winds. Read More >

                                     ZTL Airspace Summary / KTYS TAF                     For ATC Planning Purposes Only
ZTL Airspace Summary:
Dry high pressure will build into the remainder of ZTL tonight as the snow showers come to an end by 03z over the Carolinas. Expect mostly VFR conditions under clear skies with residual MVFR ceilings over N TN and E NC until 08z. Surface winds will be northwest at 10-15kts with 20kt gusts over TN/AL/GA. Flight Hazards: LGT-MOD Turbulence at all altitudes over all of ZTL and LGT-MOD Rime Icing from 020-090 over VA/E NC.

Updated: 1/17/2018 8:35 PM
 

Knoxville Terminal Aerodrome Forecast:
 
FTUS80 KTYS 172327 RRC
KTYS 172325Z 1800/1824 36008KT P6SM FEW035
     FM180900 32004KT P6SM SKC

 

TYS METAR:  
SAUS80 KTYS 180200 RRB
METAR KTYS 180153Z 04004KT 10SM CLR M11/M14 A3052 RMK AO2 SLP353
     T11061144

Go to KTYS TAF TDA
Go to KTYS TAF TDA

TYS TRACON HAZARDS
TYS TRACON: SFC-12000
AVG CIG BASE WHERE REPORTED BLW 10000FT: NONE REPORTED
LOWEST REPORTED CIG: NONE REPORTED
LOWEST REPORTED FLIGHT CAT: VFR
METARS:
KMOR 180135Z AUTO 34008KT 10SM CLR M11/M15 A3047 RMK A01
KTYS 180153Z 04004KT 10SM CLR M11/M14 A3052 RMK AO2 SLP353 T11061144
KMNV 180155Z AUTO 00000KT 10SM CLR M10/M14 A3050 RMK A01
KMMI 180155Z AUTO 36003KT 10SM CLR M11/M15 A3053 RMK
KDKX 180135Z AUTO 00000KT 10SM CLR M10/M13 A3054 RMK A01
KGKT 180135Z AUTO 00000KT 10SM FEW034 FEW042 M11/M15 A3052 RMK A01
KOQT 180153Z AUTO 00000KT 10SM CLR M11/M14 A3054 RMK AO2 SLP375 T11061139

TYS TRACON HAZARD

Forecast Surface Map Loop / Collaborative Convective Forecast Product / Vertical Wind Profile
Weather Map

 

AIRMETs & SIGMETS/ Southeast Radar loop / Satellite Image (click on image to enlarge)
Weather Map Southeast Radar Loop

satellite